Time,TemperatureF,DewpointF,PressureIn,WindDirection,WindDirectionDegrees,WindSpeedMPH,WindSpeedGustMPH,Humidity,HourlyPrecipIn,Conditions,Clouds,dailyrainin,SoftwareType,DateUTC
2013-02-01 00:04:00,46.2,46.2,30.29,SE,145,0.0,0.0,100,0.00,,,0.00,Wunderground v.1.13,2013-02-01 08:04:00,
2013-02-01 00:09:00,46.2,46.2,30.29,SE,145,0.0,0.0,100,0.00,,,0.00,Wunderground v.1.13,2013-02-01 08:09:00,
2013-02-01 00:14:00,46.2,46.2,30.29,SE,145,0.0,0.0,100,0.00,,,0.00,Wunderground v.1.13,2013-02-01 08:14:00,
2013-02-01 00:20:00,46.1,46.1,30.29,SE,145,0.0,0.0,100,0.00,,,0.00,Wunderground v.1.13,2013-02-01 08:20:00,
2013-02-01 00:26:00,46.1,46.1,30.29,SE,145,0.0,0.0,100,0.00,,,0.00,Wunderground v.1.13,2013-02-01 08:26:00,
2013-02-01 00:32:00,46.0,46.0,30.29,SE,145,0.0,0.0,100,0.00,,,0.00,Wunderground v.1.13,2013-02-01 08:32:00,
2013-02-01 00:37:00,46.0,46.0,30.29,SE,145,0.0,0.0,100,0.00,,,0.00,Wunderground v.1.13,2013-02-01 08:37:00,
2013-02-01 00:42:00,46.0,46.0,30.29,SE,145,0.0,0.0,100,0.00,,,0.00,Wunderground v.1.13,2013-02-01 08:42:00,
2013-02-01 00:49:00,45.8,45.8,30.29,SE,145,0.0,0.0,100,0.00,,,0.00,Wunderground v.1.13,2013-02-01 08:49:00,
2013-02-01 00:55:00,45.8,45.8,30.29,SE,145,0.0,0.0,100,0.00,,,0.00,Wunderground v.1.13,2013-02-01 08:55:00,
2013-02-01 01:00:00,45.8,45.8,30.29,SE,145,0.0,0.0,100,0.00,,,0.00,Wunderground v.1.13,2013-02-01 09:00:00,
2013-02-01 01:06:00,45.8,45.8,30.29,SE,145,0.0,0.0,100,0.00,,,0.00,Wunderground v.1.13,2013-02-01 09:06:00,
2013-02-01 01:11:00,45.7,45.7,30.29,SE,145,0.0,0.0,100,0.00,,,0.00,Wunderground v.1.13,2013-02-01 09:11:00,
2013-02-01 01:17:00,45.7,45.7,30.29,SE,145,0.0,0.0,100,0.00,,,0.00,Wunderground v.1.13,2013-02-01 09:17:00,
2013-02-01 01:24:00,45.7,45.7,30.29,SE,145,0.0,0.0,100,0.00,,,0.00,Wunderground v.1.13,2013-02-01 09:24:00,
2013-02-01 01:29:00,45.7,45.7,30.29,N/A,-737280,0.0,0.0,100,0.00,,,0.00,Wunderground v.1.13,2013-02-01 09:29:00,
2013-02-01 01:34:00,45.5,45.5,30.29,SE,145,0.0,0.0,100,0.00,,,0.00,Wunderground v.1.13,2013-02-01 09:34:00,
2013-02-01 01:40:00,45.4,45.4,30.29,SE,145,0.0,0.0,100,0.00,,,0.00,Wunderground v.1.13,2013-02-01 09:40:00,
2013-02-01 01:46:00,45.2,45.2,30.29,SE,145,0.0,0.0,100,0.00,,,0.00,Wunderground v.1.13,2013-02-01 09:46:00,
2013-02-01 01:52:00,45.2,45.2,30.29,SE,145,0.0,0.0,100,0.00,,,0.00,Wunderground v.1.13,2013-02-01 09:52:00,
2013-02-01 01:57:00,45.2,45.2,30.29,SE,145,0.0,0.0,100,0.00,,,0.00,Wunderground v.1.13,2013-02-01 09:57:00,
2013-02-01 02:02:00,45.2,45.2,30.29,SE,145,0.0,0.0,100,0.00,,,0.00,Wunderground v.1.13,2013-02-01 10:02:00,
2013-02-01 02:07:00,45.2,45.2,30.29,SE,145,0.0,0.0,100,0.00,,,0.00,Wunderground v.1.13,2013-02-01 10:07:00,
2013-02-01 02:14:00,45.2,45.2,30.30,SE,145,0.0,0.0,100,0.00,,,0.00,Wunderground v.1.13,2013-02-01 10:14:00,
2013-02-01 02:19:00,45.2,45.2,30.30,SE,145,0.0,0.0,100,0.00,,,0.00,Wunderground v.1.13,2013-02-01 10:19:00,
2013-02-01 02:25:00,45.2,45.2,30.30,SE,145,0.0,0.0,100,0.00,,,0.00,Wunderground v.1.13,2013-02-01 10:25:00,
2013-02-01 02:30:00,45.2,45.2,30.31,SE,145,0.0,0.0,100,0.00,,,0.00,Wunderground v.1.13,2013-02-01 10:30:00,
2013-02-01 02:35:00,45.2,45.2,30.31,SE,145,0.0,0.0,100,0.00,,,0.00,Wunderground v.1.13,2013-02-01 10:35:00,
2013-02-01 02:41:00,45.2,45.2,30.31,SE,145,0.0,0.0,100,0.00,,,0.00,Wunderground v.1.13,2013-02-01 10:41:00,
2013-02-01 02:46:00,45.4,45.4,30.31,SE,145,0.0,0.0,100,0.00,,,0.00,Wunderground v.1.13,2013-02-01 10:46:00,
2013-02-01 02:52:00,45.4,45.4,30.31,SE,145,0.0,0.0,100,0.00,,,0.00,Wunderground v.1.13,2013-02-01 10:52:00,
2013-02-01 02:57:00,45.4,45.4,30.31,SE,145,0.0,0.0,100,0.00,,,0.00,Wunderground v.1.13,2013-02-01 10:57:00,
2013-02-01 03:04:00,45.4,45.4,30.31,SE,145,0.0,0.0,100,0.00,,,0.00,Wunderground v.1.13,2013-02-01 11:04:00,
2013-02-01 03:10:00,45.4,45.4,30.31,SE,145,0.0,0.0,100,0.00,,,0.00,Wunderground v.1.13,2013-02-01 11:10:00,
2013-02-01 03:16:00,45.4,45.4,30.31,SE,145,0.0,0.0,100,0.00,,,0.00,Wunderground v.1.13,2013-02-01 11:16:00,
2013-02-01 03:22:00,45.4,45.4,30.31,SE,145,0.0,0.0,100,0.00,,,0.00,Wunderground v.1.13,2013-02-01 11:22:00,
2013-02-01 03:27:00,45.2,45.2,30.31,SE,145,0.0,0.0,100,0.00,,,0.01,Wunderground v.1.13,2013-02-01 11:27:00,
2013-02-01 03:32:00,45.2,45.2,30.31,SE,145,0.0,0.0,100,0.00,,,0.01,Wunderground v.1.13,2013-02-01 11:32:00,
2013-02-01 03:39:00,45.2,45.2,30.31,SE,145,0.0,0.0,100,0.00,,,0.01,Wunderground v.1.13,2013-02-01 11:39:00,
2013-02-01 03:45:00,45.2,45.2,30.31,SE,145,0.0,0.0,100,0.00,,,0.01,Wunderground v.1.13,2013-02-01 11:45:00,
2013-02-01 03:50:00,45.1,45.1,30.31,SE,145,0.0,0.0,100,0.00,,,0.01,Wunderground v.1.13,2013-02-01 11:50:00,
2013-02-01 03:56:00,45.1,45.1,30.31,SE,145,0.0,0.0,100,0.00,,,0.01,Wunderground v.1.13,2013-02-01 11:56:00,
2013-02-01 04:01:00,45.1,45.1,30.31,SE,145,0.0,0.0,100,0.00,,,0.01,Wunderground v.1.13,2013-02-01 12:01:00,
2013-02-01 04:06:00,44.9,44.9,30.31,SE,145,0.0,0.0,100,0.00,,,0.01,Wunderground v.1.13,2013-02-01 12:06:00,
2013-02-01 04:12:00,44.9,44.9,30.31,SE,145,0.0,0.0,100,0.00,,,0.01,Wunderground v.1.13,2013-02-01 12:12:00,
2013-02-01 04:19:00,44.9,44.9,30.31,SE,145,0.0,0.0,100,0.00,,,0.01,Wunderground v.1.13,2013-02-01 12:19:00,
2013-02-01 04:25:00,44.9,44.9,30.31,SE,145,0.0,0.0,100,0.00,,,0.01,Wunderground v.1.13,2013-02-01 12:25:00,
2013-02-01 04:30:00,44.9,44.9,30.31,SE,145,0.0,0.0,100,0.00,,,0.01,Wunderground v.1.13,2013-02-01 12:30:00,
2013-02-01 04:35:00,44.9,44.9,30.31,SE,145,0.0,0.0,100,0.00,,,0.01,Wunderground v.1.13,2013-02-01 12:35:00,
2013-02-01 04:40:00,44.8,44.8,30.31,SE,145,0.0,0.0,100,0.00,,,0.01,Wunderground v.1.13,2013-02-01 12:40:00,
2013-02-01 04:46:00,44.8,44.8,30.31,SE,145,0.0,0.0,100,0.00,,,0.01,Wunderground v.1.13,2013-02-01 12:46:00,
2013-02-01 04:51:00,44.8,44.8,30.31,SE,145,0.0,0.0,100,0.00,,,0.01,Wunderground v.1.13,2013-02-01 12:51:00,
2013-02-01 04:56:00,44.8,44.8,30.31,SE,145,0.0,0.0,100,0.00,,,0.01,Wunderground v.1.13,2013-02-01 12:56:00,
2013-02-01 05:02:00,44.6,44.6,30.30,SE,145,0.0,0.0,100,0.00,,,0.01,Wunderground v.1.13,2013-02-01 13:02:00,
2013-02-01 05:09:00,44.6,44.6,30.30,SE,145,0.0,0.0,100,0.00,,,0.01,Wunderground v.1.13,2013-02-01 13:09:00,
2013-02-01 05:14:00,44.5,44.5,30.30,SE,145,0.0,0.0,100,0.00,,,0.01,Wunderground v.1.13,2013-02-01 13:14:00,
2013-02-01 05:20:00,44.5,44.5,30.30,SE,145,0.0,0.0,100,0.00,,,0.02,Wunderground v.1.13,2013-02-01 13:20:00,
2013-02-01 05:25:00,44.5,44.5,30.30,SE,145,0.0,0.0,100,0.00,,,0.02,Wunderground v.1.13,2013-02-01 13:25:00,
2013-02-01 05:30:00,44.5,44.5,30.30,SE,145,0.0,0.0,100,0.00,,,0.02,Wunderground v.1.13,2013-02-01 13:30:00,
2013-02-01 05:35:00,44.5,44.5,30.30,SE,145,0.0,0.0,100,0.00,,,0.02,Wunderground v.1.13,2013-02-01 13:35:00,
2013-02-01 05:41:00,44.5,44.5,30.30,SE,145,0.0,0.0,100,0.00,,,0.02,Wunderground v.1.13,2013-02-01 13:41:00,
2013-02-01 05:47:00,44.5,44.5,30.30,SE,145,0.0,0.0,100,0.00,,,0.02,Wunderground v.1.13,2013-02-01 13:47:00,
2013-02-01 05:52:00,44.5,44.5,30.30,SE,145,0.0,0.0,100,0.00,,,0.02,Wunderground v.1.13,2013-02-01 13:52:00,
2013-02-01 05:57:00,44.5,44.5,30.30,SE,145,0.0,0.0,100,0.00,,,0.02,Wunderground v.1.13,2013-02-01 13:57:00,
2013-02-01 06:04:00,44.6,44.6,30.30,SE,145,0.0,0.0,100,0.00,,,0.02,Wunderground v.1.13,2013-02-01 14:04:00,
2013-02-01 06:09:00,44.6,44.6,30.30,SE,145,0.0,0.0,100,0.00,,,0.02,Wunderground v.1.13,2013-02-01 14:09:00,
2013-02-01 06:14:00,44.6,44.6,30.29,SE,145,0.0,0.0,100,0.00,,,0.02,Wunderground v.1.13,2013-02-01 14:14:00,
2013-02-01 06:20:00,44.5,44.5,30.29,SE,145,0.0,0.0,100,0.00,,,0.02,Wunderground v.1.13,2013-02-01 14:20:00,
2013-02-01 06:26:00,44.5,44.5,30.29,SE,145,0.0,0.0,100,0.00,,,0.02,Wunderground v.1.13,2013-02-01 14:26:00,
2013-02-01 06:31:00,44.5,44.5,30.29,SE,145,0.0,0.0,100,0.00,,,0.02,Wunderground v.1.13,2013-02-01 14:31:00,
2013-02-01 06:37:00,44.5,44.5,30.29,SE,145,0.0,0.0,100,0.00,,,0.02,Wunderground v.1.13,2013-02-01 14:37:00,
2013-02-01 06:42:00,44.5,44.5,30.29,SE,145,0.0,0.0,100,0.00,,,0.02,Wunderground v.1.13,2013-02-01 14:42:00,
2013-02-01 06:49:00,44.5,44.5,30.29,SE,145,0.0,0.0,100,0.00,,,0.02,Wunderground v.1.13,2013-02-01 14:49:00,
2013-02-01 06:54:00,44.5,44.5,30.29,SE,145,0.0,0.0,100,0.00,,,0.02,Wunderground v.1.13,2013-02-01 14:54:00,
2013-02-01 06:59:00,44.5,44.5,30.29,N/A,-737280,0.0,0.0,100,0.00,,,0.02,Wunderground v.1.13,2013-02-01 14:59:00,
2013-02-01 07:05:00,44.5,44.5,30.29,SE,145,0.0,0.0,100,0.00,,,0.02,Wunderground v.1.13,2013-02-01 15:05:00,
2013-02-01 07:11:00,44.5,44.5,30.29,SE,145,0.0,0.0,100,0.00,,,0.02,Wunderground v.1.13,2013-02-01 15:11:00,
2013-02-01 07:16:00,44.5,44.5,30.29,SE,145,0.0,0.0,100,0.00,,,0.02,Wunderground v.1.13,2013-02-01 15:16:00,
2013-02-01 07:21:00,44.5,44.5,30.29,SE,145,0.0,0.0,100,0.00,,,0.02,Wunderground v.1.13,2013-02-01 15:21:00,
2013-02-01 07:27:00,44.3,44.3,30.29,SE,145,0.0,0.0,100,0.00,,,0.02,Wunderground v.1.13,2013-02-01 15:27:00,
2013-02-01 07:32:00,44.3,44.3,30.29,SE,145,0.0,0.0,100,0.00,,,0.02,Wunderground v.1.13,2013-02-01 15:32:00,
2013-02-01 07:37:00,44.3,44.3,30.29,SE,145,0.0,0.0,100,0.00,,,0.02,Wunderground v.1.13,2013-02-01 15:37:00,
2013-02-01 07:44:00,44.3,44.3,30.29,SE,145,0.0,0.0,100,0.00,,,0.02,Wunderground v.1.13,2013-02-01 15:44:00,
2013-02-01 07:49:00,44.2,44.2,30.29,SE,145,0.0,0.0,100,0.00,,,0.02,Wunderground v.1.13,2013-02-01 15:49:00,
2013-02-01 07:54:00,44.2,44.2,30.29,SE,145,0.0,0.0,100,0.00,,,0.02,Wunderground v.1.13,2013-02-01 15:54:00,
2013-02-01 07:59:00,44.2,44.2,30.29,SE,145,0.0,0.0,100,0.00,,,0.02,Wunderground v.1.13,2013-02-01 15:59:00,
2013-02-01 08:04:00,44.3,44.3,30.29,SE,145,0.0,0.0,100,0.00,,,0.02,Wunderground v.1.13,2013-02-01 16:04:00,
2013-02-01 08:10:00,44.5,44.5,30.29,SE,145,0.0,0.0,100,0.00,,,0.02,Wunderground v.1.13,2013-02-01 16:10:00,
2013-02-01 08:15:00,44.5,44.5,30.29,SE,145,0.0,0.0,100,0.00,,,0.02,Wunderground v.1.13,2013-02-01 16:15:00,
2013-02-01 08:21:00,44.5,44.5,30.29,SE,145,0.0,0.0,100,0.00,,,0.02,Wunderground v.1.13,2013-02-01 16:21:00,
2013-02-01 08:26:00,44.6,44.6,30.29,SE,145,0.0,0.0,100,0.00,,,0.02,Wunderground v.1.13,2013-02-01 16:26:00,
2013-02-01 08:32:00,44.8,44.8,30.29,SE,145,0.0,0.0,100,0.00,,,0.02,Wunderground v.1.13,2013-02-01 16:32:00,
2013-02-01 08:37:00,44.9,44.9,30.29,SE,145,0.0,0.0,100,0.00,,,0.02,Wunderground v.1.13,2013-02-01 16:37:00,
2013-02-01 08:44:00,44.9,44.9,30.30,SE,145,0.0,0.0,100,0.00,,,0.02,Wunderground v.1.13,2013-02-01 16:44:00,
2013-02-01 08:49:00,45.1,45.1,30.30,SE,145,0.0,0.0,100,0.00,,,0.02,Wunderground v.1.13,2013-02-01 16:49:00,
2013-02-01 08:55:00,45.2,45.2,30.30,SE,145,0.0,0.0,100,0.00,,,0.02,Wunderground v.1.13,2013-02-01 16:55:00,
2013-02-01 09:01:00,45.2,45.2,30.30,SE,145,0.0,0.0,100,0.00,,,0.02,Wunderground v.1.13,2013-02-01 17:01:00,
2013-02-01 09:06:00,45.4,45.4,30.30,SE,145,0.0,0.0,100,0.00,,,0.02,Wunderground v.1.13,2013-02-01 17:06:00,
2013-02-01 09:11:00,45.4,45.4,30.30,SE,145,0.0,0.0,100,0.00,,,0.02,Wunderground v.1.13,2013-02-01 17:11:00,
2013-02-01 09:16:00,45.4,45.4,30.31,SE,145,0.0,0.0,100,0.00,,,0.02,Wunderground v.1.13,2013-02-01 17:16:00,
2013-02-01 09:21:00,45.5,45.5,30.31,SE,145,0.0,0.0,100,0.00,,,0.02,Wunderground v.1.13,2013-02-01 17:21:00,
2013-02-01 09:26:00,45.7,45.7,30.31,SE,145,0.0,0.0,100,0.00,,,0.02,Wunderground v.1.13,2013-02-01 17:26:00,
2013-02-01 09:31:00,45.7,45.7,30.31,SE,145,0.0,0.0,100,0.00,,,0.02,Wunderground v.1.13,2013-02-01 17:31:00,
2013-02-01 09:37:00,45.8,45.8,30.31,SE,145,0.0,0.0,100,0.00,,,0.02,Wunderground v.1.13,2013-02-01 17:37:00,
2013-02-01 09:44:00,46.0,46.0,30.31,SE,145,0.0,0.0,100,0.00,,,0.02,Wunderground v.1.13,2013-02-01 17:44:00,
2013-02-01 09:49:00,46.1,46.1,30.31,SE,145,0.0,0.0,100,0.00,,,0.02,Wunderground v.1.13,2013-02-01 17:49:00,
2013-02-01 09:54:00,46.2,46.2,30.31,SE,145,0.0,0.0,100,0.00,,,0.02,Wunderground v.1.13,2013-02-01 17:54:00,
2013-02-01 09:59:00,46.2,46.2,30.31,N/A,-737280,0.0,0.0,100,0.00,,,0.02,Wunderground v.1.13,2013-02-01 17:59:00,
2013-02-01 10:05:00,46.2,46.2,30.31,SE,145,0.0,1.0,100,0.00,,,0.02,Wunderground v.1.13,2013-02-01 18:05:00,
2013-02-01 10:10:00,46.2,46.2,30.31,SE,145,0.0,0.0,100,0.00,,,0.02,Wunderground v.1.13,2013-02-01 18:10:00,
2013-02-01 10:16:00,46.2,46.2,30.31,SE,145,0.0,0.0,100,0.00,,,0.02,Wunderground v.1.13,2013-02-01 18:16:00,
2013-02-01 10:21:00,46.2,46.2,30.31,SE,145,0.0,0.0,100,0.00,,,0.02,Wunderground v.1.13,2013-02-01 18:21:00,
2013-02-01 10:26:00,46.4,46.4,30.31,SE,145,0.0,0.0,100,0.00,,,0.02,Wunderground v.1.13,2013-02-01 18:26:00,
2013-02-01 10:32:00,46.4,46.4,30.31,SE,145,0.0,0.0,100,0.00,,,0.02,Wunderground v.1.13,2013-02-01 18:32:00,
2013-02-01 10:37:00,46.5,46.5,30.31,SE,145,0.0,0.0,100,0.00,,,0.02,Wunderground v.1.13,2013-02-01 18:37:00,
2013-02-01 10:42:00,47.1,47.1,30.31,SE,145,0.0,0.0,100,0.00,,,0.02,Wunderground v.1.13,2013-02-01 18:42:00,
2013-02-01 10:47:00,47.0,47.0,30.31,SE,145,0.0,0.0,100,0.00,,,0.02,Wunderground v.1.13,2013-02-01 18:47:00,
2013-02-01 10:54:00,47.4,47.4,30.31,SE,145,0.0,0.0,100,0.00,,,0.02,Wunderground v.1.13,2013-02-01 18:54:00,
2013-02-01 11:00:00,47.9,47.9,30.31,SE,145,0.0,0.0,100,0.00,,,0.02,Wunderground v.1.13,2013-02-01 19:00:00,
2013-02-01 11:06:00,48.0,48.0,30.31,SE,145,0.0,1.0,100,0.00,,,0.02,Wunderground v.1.13,2013-02-01 19:06:00,
2013-02-01 11:12:00,47.7,47.7,30.31,SE,145,0.0,1.0,100,0.00,,,0.02,Wunderground v.1.13,2013-02-01 19:12:00,
2013-02-01 11:17:00,47.6,47.6,30.31,ESE,102,0.0,0.0,100,0.00,,,0.02,Wunderground v.1.13,2013-02-01 19:17:00,
2013-02-01 11:22:00,47.7,47.7,30.31,ESE,102,0.0,0.0,100,0.00,,,0.02,Wunderground v.1.13,2013-02-01 19:22:00,
2013-02-01 11:27:00,47.7,47.7,30.31,ESE,102,0.0,0.0,100,0.00,,,0.02,Wunderground v.1.13,2013-02-01 19:27:00,
2013-02-01 11:34:00,47.6,47.6,30.31,ESE,102,0.0,1.0,100,0.00,,,0.02,Wunderground v.1.13,2013-02-01 19:34:00,
2013-02-01 11:40:00,47.6,47.6,30.31,ESE,102,0.0,0.0,100,0.00,,,0.02,Wunderground v.1.13,2013-02-01 19:40:00,
2013-02-01 11:46:00,48.0,48.0,30.31,ESE,102,0.0,0.0,100,0.00,,,0.02,Wunderground v.1.13,2013-02-01 19:46:00,
2013-02-01 11:52:00,48.2,48.2,30.31,ESE,102,0.0,0.0,100,0.00,,,0.02,Wunderground v.1.13,2013-02-01 19:52:00,
2013-02-01 11:57:00,48.2,48.2,30.31,ESE,116,0.0,1.0,100,0.00,,,0.02,Wunderground v.1.13,2013-02-01 19:57:00,
2013-02-01 12:02:00,48.5,48.5,30.31,ESE,116,0.0,0.0,100,0.00,,,0.02,Wunderground v.1.13,2013-02-01 20:02:00,
2013-02-01 12:09:00,48.5,48.5,30.31,East,89,0.0,0.0,100,0.00,,,0.02,Wunderground v.1.13,2013-02-01 20:09:00,
2013-02-01 12:15:00,48.5,48.5,30.31,ESE,121,1.0,3.0,100,0.00,,,0.02,Wunderground v.1.13,2013-02-01 20:15:00,
2013-02-01 12:21:00,48.8,48.8,30.31,SE,136,1.0,3.0,100,0.00,,,0.02,Wunderground v.1.13,2013-02-01 20:21:00,
2013-02-01 12:26:00,48.9,48.9,30.31,ESE,102,1.0,2.0,100,0.00,,,0.02,Wunderground v.1.13,2013-02-01 20:26:00,
2013-02-01 12:31:00,48.8,48.8,30.31,SE,128,2.0,3.0,100,0.00,,,0.02,Wunderground v.1.13,2013-02-01 20:31:00,
2013-02-01 12:36:00,49.4,49.4,30.31,East,97,1.0,2.0,100,0.00,,,0.02,Wunderground v.1.13,2013-02-01 20:36:00,
2013-02-01 12:41:00,49.5,49.5,30.31,SW,223,0.0,0.0,100,0.00,,,0.02,Wunderground v.1.13,2013-02-01 20:41:00,
2013-02-01 12:47:00,49.4,49.4,30.31,SW,223,0.0,0.0,100,0.00,,,0.02,Wunderground v.1.13,2013-02-01 20:47:00,
2013-02-01 12:52:00,49.8,49.8,30.31,ENE,59,0.0,1.0,100,0.00,,,0.02,Wunderground v.1.13,2013-02-01 20:52:00,
2013-02-01 12:59:00,49.4,49.4,30.30,ENE,68,0.0,3.0,100,0.00,,,0.02,Wunderground v.1.13,2013-02-01 20:59:00,
2013-02-01 13:04:00,49.5,49.5,30.30,East,96,0.0,2.0,100,0.00,,,0.02,Wunderground v.1.13,2013-02-01 21:04:00,
2013-02-01 13:09:00,49.5,49.5,30.30,East,83,1.0,2.0,100,0.00,,,0.02,Wunderground v.1.13,2013-02-01 21:09:00,
2013-02-01 13:14:00,49.4,49.4,30.28,SE,131,0.0,2.0,100,0.00,,,0.02,Wunderground v.1.13,2013-02-01 21:14:00,
2013-02-01 13:20:00,49.8,49.8,30.28,East,100,0.0,0.0,100,0.00,,,0.02,Wunderground v.1.13,2013-02-01 21:20:00,
2013-02-01 13:25:00,50.1,50.1,30.28,ENE,64,1.0,1.0,100,0.00,,,0.02,Wunderground v.1.13,2013-02-01 21:25:00,
2013-02-01 13:31:00,50.2,50.2,30.28,SE,124,1.0,1.0,100,0.00,,,0.02,Wunderground v.1.13,2013-02-01 21:31:00,
2013-02-01 13:36:00,50.1,50.1,30.28,NE,56,1.0,2.0,100,0.00,,,0.02,Wunderground v.1.13,2013-02-01 21:36:00,
2013-02-01 13:42:00,50.2,50.2,30.27,ENE,58,1.0,2.0,100,0.00,,,0.02,Wunderground v.1.13,2013-02-01 21:42:00,
2013-02-01 13:49:00,50.8,50.8,30.27,South,181,0.0,1.0,100,0.00,,,0.02,Wunderground v.1.13,2013-02-01 21:49:00,
2013-02-01 13:54:00,50.8,50.8,30.27,NE,49,0.0,1.0,100,0.00,,,0.02,Wunderground v.1.13,2013-02-01 21:54:00,
2013-02-01 13:59:00,50.7,50.7,30.27,NE,54,1.0,1.0,100,0.00,,,0.02,Wunderground v.1.13,2013-02-01 21:59:00,
2013-02-01 14:04:00,50.8,50.8,30.27,ENE,69,0.0,1.0,100,0.00,,,0.02,Wunderground v.1.13,2013-02-01 22:04:00,
2013-02-01 14:10:00,50.8,50.8,30.27,ENE,71,0.0,0.0,100,0.00,,,0.02,Wunderground v.1.13,2013-02-01 22:10:00,
2013-02-01 14:15:00,51.6,51.6,30.27,ENE,71,0.0,0.0,100,0.00,,,0.02,Wunderground v.1.13,2013-02-01 22:15:00,
2013-02-01 14:21:00,51.1,51.1,30.27,NE,55,0.0,0.0,100,0.00,,,0.02,Wunderground v.1.13,2013-02-01 22:21:00,
2013-02-01 14:26:00,51.1,51.1,30.27,NE,55,0.0,0.0,100,0.00,,,0.02,Wunderground v.1.13,2013-02-01 22:26:00,
2013-02-01 14:31:00,51.4,51.4,30.26,NE,55,0.0,0.0,100,0.00,,,0.02,Wunderground v.1.13,2013-02-01 22:31:00,
2013-02-01 14:36:00,51.6,51.6,30.26,NE,52,0.0,1.0,100,0.00,,,0.02,Wunderground v.1.13,2013-02-01 22:36:00,
2013-02-01 14:42:00,51.6,51.6,30.27,NE,52,0.0,0.0,100,0.00,,,0.02,Wunderground v.1.13,2013-02-01 22:42:00,
2013-02-01 14:49:00,51.4,50.9,30.27,NE,52,0.0,0.0,98,0.00,,,0.02,Wunderground v.1.13,2013-02-01 22:49:00,
2013-02-01 14:55:00,51.7,50.9,30.27,NE,52,0.0,0.0,97,0.00,,,0.02,Wunderground v.1.13,2013-02-01 22:55:00,
2013-02-01 15:00:00,51.7,50.6,30.26,NE,45,0.0,2.0,96,0.00,,,0.02,Wunderground v.1.13,2013-02-01 23:00:00,
2013-02-01 15:05:00,51.9,50.2,30.26,NE,52,0.0,0.0,94,0.00,,,0.02,Wunderground v.1.13,2013-02-01 23:05:00,
2013-02-01 15:11:00,51.3,49.3,30.26,NE,52,0.0,0.0,93,0.00,,,0.02,Wunderground v.1.13,2013-02-01 23:11:00,
2013-02-01 15:17:00,51.3,49.3,30.26,NE,52,0.0,1.0,93,0.00,,,0.02,Wunderground v.1.13,2013-02-01 23:17:00,
2013-02-01 15:24:00,51.1,49.1,30.26,NE,56,0.0,1.0,93,0.00,,,0.02,Wunderground v.1.13,2013-02-01 23:24:00,
2013-02-01 15:29:00,51.1,49.1,30.26,NE,56,0.0,2.0,93,0.00,,,0.02,Wunderground v.1.13,2013-02-01 23:29:00,
2013-02-01 15:34:00,51.0,48.8,30.26,NE,56,0.0,1.0,92,0.00,,,0.02,Wunderground v.1.13,2013-02-01 23:34:00,
2013-02-01 15:39:00,50.8,48.3,30.26,NE,56,0.0,1.0,91,0.00,,,0.02,Wunderground v.1.13,2013-02-01 23:39:00,
2013-02-01 15:45:00,50.8,48.3,30.25,NE,56,0.0,0.0,91,0.00,,,0.02,Wunderground v.1.13,2013-02-01 23:45:00,
2013-02-01 15:51:00,50.8,48.3,30.25,NE,54,0.0,0.0,91,0.00,,,0.02,Wunderground v.1.13,2013-02-01 23:51:00,
2013-02-01 15:57:00,50.7,48.2,30.25,NE,54,0.0,0.0,91,0.00,,,0.02,Wunderground v.1.13,2013-02-01 23:57:00,
2013-02-01 16:02:00,50.7,48.2,30.25,NE,54,0.0,0.0,91,0.00,,,0.02,Wunderground v.1.13,2013-02-02 00:02:00,
2013-02-01 16:07:00,50.7,48.2,30.25,NE,54,0.0,0.0,91,0.00,,,0.02,Wunderground v.1.13,2013-02-02 00:07:00,
2013-02-01 16:12:00,50.5,48.0,30.25,NE,54,0.0,0.0,91,0.00,,,0.02,Wunderground v.1.13,2013-02-02 00:12:00,
2013-02-01 16:17:00,49.9,47.4,30.25,NE,54,0.0,1.0,91,0.00,,,0.02,Wunderground v.1.13,2013-02-02 00:17:00,
2013-02-01 16:22:00,49.6,47.1,30.25,NE,54,0.0,0.0,91,0.00,,,0.02,Wunderground v.1.13,2013-02-02 00:22:00,
2013-02-01 16:29:00,49.4,47.2,30.25,NE,45,0.0,1.0,92,0.00,,,0.02,Wunderground v.1.13,2013-02-02 00:29:00,
2013-02-01 16:34:00,48.9,47.0,30.25,NE,54,0.0,0.0,93,0.00,,,0.02,Wunderground v.1.13,2013-02-02 00:34:00,
2013-02-01 16:39:00,48.8,46.9,30.25,NE,54,0.0,0.0,93,0.00,,,0.02,Wunderground v.1.13,2013-02-02 00:39:00,
2013-02-01 16:44:00,48.5,46.9,30.25,NE,54,0.0,1.0,94,0.00,,,0.02,Wunderground v.1.13,2013-02-02 00:44:00,
2013-02-01 16:49:00,48.3,46.7,30.25,NE,54,1.0,1.0,94,0.00,,,0.02,Wunderground v.1.13,2013-02-02 00:49:00,
2013-02-01 16:54:00,48.2,46.6,30.25,NE,54,0.0,1.0,94,0.00,,,0.02,Wunderground v.1.13,2013-02-02 00:54:00,
2013-02-01 16:59:00,48.0,46.4,30.25,NE,45,0.0,2.0,94,0.00,,,0.02,Wunderground v.1.13,2013-02-02 00:59:00,
2013-02-01 17:05:00,47.9,46.3,30.25,NE,54,1.0,1.0,94,0.00,,,0.02,Wunderground v.1.13,2013-02-02 01:05:00,
2013-02-01 17:10:00,47.9,46.3,30.25,NE,54,1.0,1.0,94,0.00,,,0.02,Wunderground v.1.13,2013-02-02 01:10:00,
2013-02-01 17:16:00,47.7,46.3,30.25,NE,54,1.0,3.0,95,0.00,,,0.02,Wunderground v.1.13,2013-02-02 01:16:00,
2013-02-01 17:21:00,47.6,46.2,30.25,NE,54,1.0,3.0,95,0.00,,,0.02,Wunderground v.1.13,2013-02-02 01:21:00,
2013-02-01 17:26:00,47.3,46.2,30.25,NE,54,2.0,2.0,96,0.00,,,0.02,Wunderground v.1.13,2013-02-02 01:26:00,
2013-02-01 17:32:00,47.0,45.9,30.24,NE,54,2.0,3.0,96,0.00,,,0.02,Wunderground v.1.13,2013-02-02 01:32:00,
2013-02-01 17:39:00,46.8,46.0,30.24,NE,54,1.0,2.0,97,0.00,,,0.02,Wunderground v.1.13,2013-02-02 01:39:00,
2013-02-01 17:44:00,46.8,46.0,30.25,NE,54,1.0,2.0,97,0.00,,,0.02,Wunderground v.1.13,2013-02-02 01:44:00,
2013-02-01 17:49:00,46.7,45.9,30.25,NE,54,1.0,2.0,97,0.00,,,0.02,Wunderground v.1.13,2013-02-02 01:49:00,
2013-02-01 17:54:00,46.7,45.9,30.25,NE,54,1.0,2.0,97,0.00,,,0.02,Wunderground v.1.13,2013-02-02 01:54:00,
2013-02-01 17:59:00,46.5,45.7,30.25,NE,45,1.0,4.0,97,0.00,,,0.02,Wunderground v.1.13,2013-02-02 01:59:00,
2013-02-01 18:05:00,46.4,45.6,30.25,NE,54,1.0,1.0,97,0.00,,,0.02,Wunderground v.1.13,2013-02-02 02:05:00,
2013-02-01 18:11:00,46.4,45.6,30.25,NE,54,1.0,1.0,97,0.00,,,0.02,Wunderground v.1.13,2013-02-02 02:11:00,
2013-02-01 18:17:00,46.2,45.4,30.25,NE,54,1.0,3.0,97,0.00,,,0.02,Wunderground v.1.13,2013-02-02 02:17:00,
2013-02-01 18:24:00,46.0,45.2,30.25,NE,54,1.0,1.0,97,0.00,,,0.02,Wunderground v.1.13,2013-02-02 02:24:00,
2013-02-01 18:29:00,46.0,45.2,30.24,NE,54,1.0,2.0,97,0.00,,,0.02,Wunderground v.1.13,2013-02-02 02:29:00,
2013-02-01 18:35:00,46.0,45.5,30.24,NE,52,2.0,2.0,98,0.00,,,0.02,Wunderground v.1.13,2013-02-02 02:35:00,
2013-02-01 18:41:00,45.8,45.3,30.24,NE,41,2.0,3.0,98,0.00,,,0.02,Wunderground v.1.13,2013-02-02 02:41:00,
2013-02-01 18:47:00,45.8,45.3,30.25,NE,41,2.0,2.0,98,0.00,,,0.02,Wunderground v.1.13,2013-02-02 02:47:00,
2013-02-01 18:52:00,45.7,45.2,30.25,NE,41,2.0,2.0,98,0.00,,,0.02,Wunderground v.1.13,2013-02-02 02:52:00,
2013-02-01 18:59:00,45.5,45.0,30.25,NE,45,1.0,4.0,98,0.00,,,0.02,Wunderground v.1.13,2013-02-02 02:59:00,
2013-02-01 19:04:00,45.5,45.2,30.25,NE,48,1.0,2.0,99,0.00,,,0.02,Wunderground v.1.13,2013-02-02 03:04:00,
2013-02-01 19:10:00,45.5,45.2,30.25,NE,48,1.0,1.0,99,0.00,,,0.02,Wunderground v.1.13,2013-02-02 03:10:00,
2013-02-01 19:16:00,45.2,44.9,30.24,NE,48,1.0,2.0,99,0.00,,,0.02,Wunderground v.1.13,2013-02-02 03:16:00,
2013-02-01 19:22:00,45.2,44.9,30.24,NE,48,1.0,2.0,99,0.00,,,0.02,Wunderground v.1.13,2013-02-02 03:22:00,
2013-02-01 19:27:00,45.2,45.2,30.25,NE,48,2.0,3.0,100,0.00,,,0.02,Wunderground v.1.13,2013-02-02 03:27:00,
2013-02-01 19:32:00,45.2,45.2,30.25,NE,48,2.0,3.0,100,0.00,,,0.02,Wunderground v.1.13,2013-02-02 03:32:00,
2013-02-01 19:39:00,45.2,45.2,30.25,ENE,62,2.0,2.0,100,0.00,,,0.02,Wunderground v.1.13,2013-02-02 03:39:00,
2013-02-01 19:44:00,45.2,45.2,30.24,ENE,58,2.0,3.0,100,0.00,,,0.02,Wunderground v.1.13,2013-02-02 03:44:00,
2013-02-01 19:49:00,45.2,45.2,30.24,NE,56,2.0,3.0,100,0.00,,,0.02,Wunderground v.1.13,2013-02-02 03:49:00,
2013-02-01 19:55:00,45.1,45.1,30.24,NE,56,2.0,2.0,100,0.00,,,0.02,Wunderground v.1.13,2013-02-02 03:55:00,
2013-02-01 20:01:00,45.1,45.1,30.24,NE,56,2.0,2.0,100,0.00,,,0.02,Wunderground v.1.13,2013-02-02 04:01:00,
2013-02-01 20:06:00,45.1,45.1,30.24,NE,56,2.0,2.0,100,0.00,,,0.02,Wunderground v.1.13,2013-02-02 04:06:00,
2013-02-01 20:11:00,45.1,44.8,30.24,NE,56,1.0,2.0,99,0.00,,,0.02,Wunderground v.1.13,2013-02-02 04:11:00,
2013-02-01 20:16:00,44.9,44.9,30.24,NE,56,1.0,1.0,100,0.00,,,0.02,Wunderground v.1.13,2013-02-02 04:16:00,
2013-02-01 20:22:00,44.9,44.9,30.24,NE,56,1.0,3.0,100,0.00,,,0.02,Wunderground v.1.13,2013-02-02 04:22:00,
2013-02-01 20:27:00,44.9,44.9,30.24,NE,56,1.0,3.0,100,0.00,,,0.02,Wunderground v.1.13,2013-02-02 04:27:00,
2013-02-01 20:32:00,45.1,45.1,30.24,NE,56,2.0,2.0,100,0.00,,,0.02,Wunderground v.1.13,2013-02-02 04:32:00,
2013-02-01 20:37:00,45.1,44.8,30.24,NE,56,2.0,2.0,99,0.00,,,0.02,Wunderground v.1.13,2013-02-02 04:37:00,
2013-02-01 20:44:00,44.9,44.6,30.24,NE,56,1.0,2.0,99,0.00,,,0.02,Wunderground v.1.13,2013-02-02 04:44:00,
2013-02-01 20:49:00,44.9,44.9,30.24,NE,56,1.0,1.0,100,0.00,,,0.02,Wunderground v.1.13,2013-02-02 04:49:00,
2013-02-01 20:54:00,44.9,44.9,30.24,NE,56,1.0,2.0,100,0.00,,,0.02,Wunderground v.1.13,2013-02-02 04:54:00,
2013-02-01 21:00:00,44.8,44.8,30.24,NE,56,0.0,0.0,100,0.00,,,0.02,Wunderground v.1.13,2013-02-02 05:00:00,
2013-02-01 21:01:00,44.8,44.8,30.24,NE,56,0.0,0.0,100,0.00,,,0.02,Wunderground v.1.13,2013-02-02 05:01:00,
2013-02-01 21:04:00,44.6,44.6,30.24,NE,56,0.0,0.0,100,0.00,,,0.02,Wunderground v.1.13,2013-02-02 05:04:00,
2013-02-01 21:06:00,44.6,44.6,30.24,NE,56,0.0,0.0,100,0.00,,,0.02,Wunderground v.1.13,2013-02-02 05:06:00,
2013-02-01 21:11:00,44.8,44.8,30.24,NE,56,0.0,0.0,100,0.00,,,0.02,Wunderground v.1.13,2013-02-02 05:11:00,
2013-02-01 21:16:00,44.8,44.8,30.23,NE,56,0.0,0.0,100,0.00,,,0.02,Wunderground v.1.13,2013-02-02 05:16:00,
2013-02-01 21:22:00,44.6,44.6,30.23,NE,56,0.0,1.0,100,0.00,,,0.02,Wunderground v.1.13,2013-02-02 05:22:00,
2013-02-01 21:27:00,44.5,44.5,30.23,NE,56,0.0,0.0,100,0.00,,,0.02,Wunderground v.1.13,2013-02-02 05:27:00,
2013-02-01 21:34:00,44.2,44.2,30.23,NE,56,0.0,0.0,100,0.00,,,0.02,Wunderground v.1.13,2013-02-02 05:34:00,
2013-02-01 21:40:00,43.9,43.9,30.23,NE,56,0.0,0.0,100,0.00,,,0.02,Wunderground v.1.13,2013-02-02 05:40:00,
2013-02-01 21:46:00,43.8,43.8,30.23,NE,56,0.0,0.0,100,0.00,,,0.02,Wunderground v.1.13,2013-02-02 05:46:00,
2013-02-01 21:52:00,43.5,43.5,30.23,NE,56,0.0,0.0,100,0.00,,,0.02,Wunderground v.1.13,2013-02-02 05:52:00,
2013-02-01 21:59:00,43.2,43.2,30.23,NE,45,0.0,1.0,100,0.00,,,0.02,Wunderground v.1.13,2013-02-02 05:59:00,
2013-02-01 22:04:00,42.9,42.9,30.23,NE,56,0.0,0.0,100,0.00,,,0.02,Wunderground v.1.13,2013-02-02 06:04:00,
2013-02-01 22:09:00,42.9,42.9,30.23,NE,56,0.0,0.0,100,0.00,,,0.02,Wunderground v.1.13,2013-02-02 06:09:00,
2013-02-01 22:14:00,42.8,42.8,30.23,NE,56,0.0,0.0,100,0.00,,,0.02,Wunderground v.1.13,2013-02-02 06:14:00,
2013-02-01 22:20:00,42.5,42.5,30.23,NE,56,0.0,0.0,100,0.00,,,0.02,Wunderground v.1.13,2013-02-02 06:20:00,
2013-02-01 22:26:00,42.3,42.3,30.23,NE,56,0.0,0.0,100,0.00,,,0.02,Wunderground v.1.13,2013-02-02 06:26:00,
2013-02-01 22:31:00,42.2,42.2,30.22,NE,56,0.0,0.0,100,0.00,,,0.02,Wunderground v.1.13,2013-02-02 06:31:00,
2013-02-01 22:36:00,41.9,41.9,30.22,NE,56,0.0,0.0,100,0.00,,,0.02,Wunderground v.1.13,2013-02-02 06:36:00,
2013-02-01 22:41:00,41.9,41.9,30.22,NE,56,0.0,0.0,100,0.00,,,0.02,Wunderground v.1.13,2013-02-02 06:41:00,
2013-02-01 22:46:00,41.6,41.6,30.22,NE,56,0.0,0.0,100,0.00,,,0.02,Wunderground v.1.13,2013-02-02 06:46:00,
2013-02-01 22:51:00,41.5,41.5,30.22,NE,56,0.0,0.0,100,0.00,,,0.02,Wunderground v.1.13,2013-02-02 06:51:00,
2013-02-01 22:56:00,41.5,41.5,30.22,NE,56,0.0,0.0,100,0.00,,,0.02,Wunderground v.1.13,2013-02-02 06:56:00,
2013-02-01 23:02:00,41.5,41.5,30.23,NE,56,0.0,0.0,100,0.00,,,0.02,Wunderground v.1.13,2013-02-02 07:02:00,
2013-02-01 23:07:00,41.9,41.9,30.23,NE,56,0.0,0.0,100,0.00,,,0.02,Wunderground v.1.13,2013-02-02 07:07:00,
2013-02-01 23:12:00,42.2,42.2,30.22,NE,56,0.0,0.0,100,0.00,,,0.02,Wunderground v.1.13,2013-02-02 07:12:00,
2013-02-01 23:17:00,42.2,42.2,30.22,NE,56,0.0,0.0,100,0.00,,,0.02,Wunderground v.1.13,2013-02-02 07:17:00,
2013-02-01 23:22:00,42.5,42.5,30.22,NE,56,0.0,0.0,100,0.00,,,0.02,Wunderground v.1.13,2013-02-02 07:22:00,
2013-02-01 23:27:00,42.6,42.6,30.22,NE,56,0.0,0.0,100,0.00,,,0.02,Wunderground v.1.13,2013-02-02 07:27:00,
2013-02-01 23:34:00,42.5,42.5,30.22,NE,56,0.0,0.0,100,0.00,,,0.02,Wunderground v.1.13,2013-02-02 07:34:00,
2013-02-01 23:39:00,42.2,42.2,30.22,NE,56,0.0,0.0,100,0.00,,,0.02,Wunderground v.1.13,2013-02-02 07:39:00,
2013-02-01 23:45:00,42.1,42.1,30.22,NE,56,0.0,0.0,100,0.00,,,0.02,Wunderground v.1.13,2013-02-02 07:45:00,
2013-02-01 23:50:00,42.1,42.1,30.22,NE,56,0.0,0.0,100,0.00,,,0.02,Wunderground v.1.13,2013-02-02 07:50:00,
2013-02-01 23:55:00,41.9,41.9,30.22,NE,56,0.0,0.0,100,0.00,,,0.02,Wunderground v.1.13,2013-02-02 07:55:00,